Time,TemperatureF,DewpointF,PressureIn,WindDirection,WindDirectionDegrees,WindSpeedMPH,WindSpeedGustMPH,Humidity,HourlyPrecipIn,Conditions,Clouds,dailyrainin,SoftwareType,DateUTC
2013-06-06 00:02:00,65.0,44.0,29.97,ENE,60,11.0,14.0,46,-99.99,,,-99.99,,2013-06-06 05:02:00,
2013-06-06 00:12:00,65.0,44.0,29.97,ENE,60,11.0,14.0,46,-99.99,,,-99.99,,2013-06-06 05:12:00,
2013-06-06 00:22:00,65.0,44.0,29.97,NE,50,10.0,13.0,47,-99.99,,,-99.99,,2013-06-06 05:22:00,
2013-06-06 00:31:00,62.0,46.0,29.97,NE,40,10.0,11.0,55,-99.99,,,-99.99,,2013-06-06 05:31:00,
2013-06-06 00:41:00,62.0,45.0,29.97,NNE,30,14.0,15.0,54,-99.99,,,-99.99,,2013-06-06 05:41:00,
2013-06-06 00:51:00,62.0,45.0,29.97,NNE,30,14.0,15.0,54,-99.99,,,-99.99,,2013-06-06 05:51:00,
2013-06-06 01:01:00,58.0,48.0,29.98,NE,40,10.0,13.0,68,-99.99,,,-99.99,,2013-06-06 06:01:00,
2013-06-06 01:11:00,59.0,47.0,29.97,NE,40,11.0,13.0,64,-99.99,,,-99.99,,2013-06-06 06:11:00,
2013-06-06 01:21:00,59.0,47.0,29.97,NE,40,11.0,13.0,64,-99.99,,,-99.99,,2013-06-06 06:21:00,
2013-06-06 01:32:00,60.0,46.0,29.97,NE,50,8.0,10.0,61,-99.99,,,-99.99,,2013-06-06 06:32:00,
2013-06-06 01:41:00,60.0,46.0,29.97,NE,50,8.0,10.0,61,-99.99,,,-99.99,,2013-06-06 06:41:00,
2013-06-06 01:52:00,61.0,46.0,29.97,NE,50,7.0,8.0,57,-99.99,,,-99.99,,2013-06-06 06:52:00,
2013-06-06 02:02:00,62.0,46.0,29.96,NE,50,8.0,10.0,56,-99.99,,,-99.99,,2013-06-06 07:02:00,
2013-06-06 02:11:00,62.0,46.0,29.96,NE,50,8.0,10.0,56,-99.99,,,-99.99,,2013-06-06 07:11:00,
2013-06-06 02:22:00,63.0,45.0,29.96,ENE,70,7.0,9.0,53,-99.99,,,-99.99,,2013-06-06 07:22:00,
2013-06-06 02:31:00,63.0,45.0,29.96,ENE,60,8.0,11.0,51,-99.99,,,-99.99,,2013-06-06 07:31:00,
2013-06-06 02:42:00,63.0,44.0,29.95,ENE,60,9.0,13.0,50,-99.99,,,-99.99,,2013-06-06 07:42:00,
2013-06-06 02:52:00,63.0,44.0,29.95,ENE,60,9.0,13.0,50,-99.99,,,-99.99,,2013-06-06 07:52:00,
2013-06-06 03:01:00,63.0,43.0,29.95,ENE,70,8.0,14.0,48,-99.99,,,-99.99,,2013-06-06 08:01:00,
2013-06-06 03:11:00,63.0,43.0,29.95,ENE,70,8.0,14.0,48,-99.99,,,-99.99,,2013-06-06 08:11:00,
2013-06-06 03:21:00,63.0,42.0,29.94,ENE,60,10.0,14.0,45,-99.99,,,-99.99,,2013-06-06 08:21:00,
2013-06-06 03:31:00,63.0,41.0,29.94,ENE,60,8.0,11.0,44,-99.99,,,-99.99,,2013-06-06 08:31:00,
2013-06-06 03:41:00,62.0,41.0,29.94,NE,50,10.0,11.0,45,-99.99,,,-99.99,,2013-06-06 08:41:00,
2013-06-06 03:51:00,62.0,41.0,29.94,NE,50,10.0,11.0,45,-99.99,,,-99.99,,2013-06-06 08:51:00,
2013-06-06 04:01:00,62.0,41.0,29.93,ENE,60,9.0,13.0,45,-99.99,,,-99.99,,2013-06-06 09:01:00,
2013-06-06 04:11:00,62.0,41.0,29.93,ENE,60,9.0,13.0,45,-99.99,,,-99.99,,2013-06-06 09:11:00,
2013-06-06 04:22:00,62.0,41.0,29.93,NE,50,10.0,13.0,46,-99.99,,,-99.99,,2013-06-06 09:22:00,
2013-06-06 04:32:00,62.0,42.0,29.93,NE,50,13.0,17.0,48,-99.99,,,-99.99,,2013-06-06 09:32:00,
2013-06-06 04:42:00,62.0,43.0,29.93,ENE,70,10.0,15.0,50,-99.99,,,-99.99,,2013-06-06 09:42:00,
2013-06-06 04:53:00,62.0,43.0,29.93,ENE,70,10.0,15.0,50,-99.99,,,-99.99,,2013-06-06 09:53:00,
2013-06-06 05:02:00,61.0,43.0,29.93,ENE,60,10.0,14.0,51,-99.99,,,-99.99,,2013-06-06 10:02:00,
2013-06-06 05:12:00,61.0,44.0,29.92,NE,50,13.0,16.0,52,-99.99,,,-99.99,,2013-06-06 10:12:00,
2013-06-06 05:22:00,61.0,44.0,29.92,NE,50,13.0,16.0,52,-99.99,,,-99.99,,2013-06-06 10:22:00,
2013-06-06 05:32:00,61.0,44.0,29.92,ENE,60,13.0,16.0,55,-99.99,,,-99.99,,2013-06-06 10:32:00,
2013-06-06 05:41:00,61.0,44.0,29.92,ENE,60,13.0,16.0,55,-99.99,,,-99.99,,2013-06-06 10:41:00,
2013-06-06 05:52:00,61.0,45.0,29.93,ENE,70,9.0,13.0,57,-99.99,,,-99.99,,2013-06-06 10:52:00,
2013-06-06 06:02:00,61.0,46.0,29.92,ENE,70,11.0,14.0,58,-99.99,,,-99.99,,2013-06-06 11:02:00,
2013-06-06 06:11:00,61.0,46.0,29.92,ENE,70,11.0,14.0,58,-99.99,,,-99.99,,2013-06-06 11:11:00,
2013-06-06 06:22:00,61.0,47.0,29.92,ENE,60,11.0,16.0,60,-99.99,,,-99.99,,2013-06-06 11:22:00,
2013-06-06 06:31:00,60.0,47.0,29.93,NE,40,10.0,13.0,63,-99.99,,,-99.99,,2013-06-06 11:31:00,
2013-06-06 06:42:00,60.0,47.0,29.93,NE,40,10.0,13.0,63,-99.99,,,-99.99,,2013-06-06 11:42:00,
2013-06-06 06:51:00,60.0,47.0,29.93,NE,50,9.0,15.0,62,-99.99,,,-99.99,,2013-06-06 11:51:00,
2013-06-06 07:01:00,61.0,47.0,29.93,NE,50,9.0,14.0,61,-99.99,,,-99.99,,2013-06-06 12:01:00,
2013-06-06 07:11:00,61.0,47.0,29.93,NE,50,9.0,14.0,61,-99.99,,,-99.99,,2013-06-06 12:11:00,
2013-06-06 07:21:00,61.0,47.0,29.93,ENE,70,13.0,17.0,61,-99.99,,,-99.99,,2013-06-06 12:21:00,
2013-06-06 07:32:00,61.0,47.0,29.93,East,80,11.0,17.0,60,-99.99,,,-99.99,,2013-06-06 12:32:00,
2013-06-06 07:42:00,61.0,47.0,29.93,East,80,11.0,17.0,60,-99.99,,,-99.99,,2013-06-06 12:42:00,
2013-06-06 07:52:00,61.0,47.0,29.93,ENE,70,9.0,13.0,61,-99.99,,,-99.99,,2013-06-06 12:52:00,
2013-06-06 08:02:00,61.0,48.0,29.93,NE,50,7.0,10.0,61,-99.99,,,-99.99,,2013-06-06 13:02:00,
2013-06-06 08:22:00,60.0,48.0,29.93,NE,40,6.0,8.0,63,-99.99,,,-99.99,,2013-06-06 13:22:00,
2013-06-06 08:31:00,60.0,48.0,29.94,NNE,30,8.0,10.0,64,-99.99,,,-99.99,,2013-06-06 13:31:00,
2013-06-06 08:42:00,60.0,48.0,29.94,NNE,30,8.0,10.0,64,-99.99,,,-99.99,,2013-06-06 13:42:00,
2013-06-06 08:52:00,58.0,49.0,29.94,North,10,9.0,11.0,73,-99.99,,,-99.99,,2013-06-06 13:52:00,
2013-06-06 09:01:00,58.0,49.0,29.94,North,10,9.0,11.0,73,-99.99,,,-99.99,,2013-06-06 14:01:00,
2013-06-06 09:11:00,58.0,49.0,29.94,North,10,9.0,11.0,73,-99.99,,,-99.99,,2013-06-06 14:11:00,
2013-06-06 09:21:00,55.0,50.0,29.95,NNE,30,8.0,9.0,81,-99.99,,,-99.99,,2013-06-06 14:21:00,
2013-06-06 09:31:00,58.0,49.0,29.94,NNE,30,13.0,14.0,73,-99.99,,,-99.99,,2013-06-06 14:31:00,
2013-06-06 09:42:00,58.0,49.0,29.94,NNE,30,13.0,14.0,73,-99.99,,,-99.99,,2013-06-06 14:42:00,
2013-06-06 10:01:00,57.0,50.0,29.95,NNE,20,11.0,13.0,78,-99.99,,,-99.99,,2013-06-06 15:01:00,
2013-06-06 10:11:00,57.0,50.0,29.95,NNE,20,11.0,13.0,78,-99.99,,,-99.99,,2013-06-06 15:11:00,
2013-06-06 10:22:00,55.0,51.0,29.94,NNE,20,6.0,8.0,85,-99.99,,,-99.99,,2013-06-06 15:22:00,
2013-06-06 10:32:00,57.0,52.0,29.93,North,10,13.0,14.0,84,-99.99,,,-99.99,,2013-06-06 15:32:00,
2013-06-06 10:42:00,57.0,52.0,29.93,North,10,13.0,14.0,84,-99.99,,,-99.99,,2013-06-06 15:42:00,
2013-06-06 10:52:00,55.0,52.0,29.94,NNE,20,9.0,15.0,88,-99.99,,,-99.99,,2013-06-06 15:52:00,
2013-06-06 11:02:00,57.0,52.0,29.93,North,360,17.0,18.0,84,-99.99,,,-99.99,,2013-06-06 16:02:00,
2013-06-06 11:12:00,57.0,52.0,29.93,North,360,17.0,18.0,84,-99.99,,,-99.99,,2013-06-06 16:12:00,
2013-06-06 11:22:00,56.0,52.0,29.94,North,10,14.0,15.0,84,-99.99,,,-99.99,,2013-06-06 16:22:00,
2013-06-06 11:33:00,57.0,52.0,29.94,North,10,15.0,16.0,83,-99.99,,,-99.99,,2013-06-06 16:33:00,
2013-06-06 11:42:00,57.0,52.0,29.94,North,10,15.0,16.0,83,-99.99,,,-99.99,,2013-06-06 16:42:00,
2013-06-06 11:52:00,56.0,53.0,29.94,North,360,16.0,17.0,86,-99.99,,,-99.99,,2013-06-06 16:52:00,
2013-06-06 12:02:00,56.0,53.0,29.95,North,360,15.0,16.0,87,-99.99,,,-99.99,,2013-06-06 17:02:00,
2013-06-06 12:12:00,56.0,53.0,29.95,North,360,15.0,16.0,87,-99.99,,,-99.99,,2013-06-06 17:12:00,
2013-06-06 12:22:00,56.0,52.0,29.95,North,350,14.0,16.0,85,-99.99,,,-99.99,,2013-06-06 17:22:00,
2013-06-06 12:32:00,56.0,52.0,29.96,North,350,17.0,20.0,85,-99.99,,,-99.99,,2013-06-06 17:32:00,
2013-06-06 12:42:00,56.0,52.0,29.96,North,350,17.0,20.0,85,-99.99,,,-99.99,,2013-06-06 17:42:00,
2013-06-06 12:52:00,56.0,52.0,29.96,North,350,17.0,20.0,84,-99.99,,,-99.99,,2013-06-06 17:52:00,
2013-06-06 13:02:00,56.0,52.0,29.96,NNW,340,16.0,18.0,85,-99.99,,,-99.99,,2013-06-06 18:02:00,
2013-06-06 13:11:00,55.0,52.0,29.95,North,350,16.0,18.0,87,-99.99,,,-99.99,,2013-06-06 18:11:00,
2013-06-06 13:21:00,55.0,52.0,29.95,North,10,16.0,20.0,89,-99.99,,,-99.99,,2013-06-06 18:21:00,
2013-06-06 13:33:00,55.0,52.0,29.95,North,10,16.0,20.0,89,-99.99,,,-99.99,,2013-06-06 18:33:00,
2013-06-06 13:42:00,55.0,52.0,29.95,North,10,16.0,20.0,89,-99.99,,,-99.99,,2013-06-06 18:42:00,
2013-06-06 13:52:00,54.0,52.0,29.95,NE,40,14.0,16.0,90,-99.99,,,-99.99,,2013-06-06 18:52:00,
2013-06-06 14:02:00,55.0,51.0,29.94,NE,40,13.0,16.0,88,-99.99,,,-99.99,,2013-06-06 19:02:00,
2013-06-06 14:11:00,55.0,51.0,29.94,NE,40,13.0,16.0,88,-99.99,,,-99.99,,2013-06-06 19:11:00,
2013-06-06 14:23:00,55.0,51.0,29.93,NNE,30,15.0,16.0,87,-99.99,,,-99.99,,2013-06-06 19:23:00,
2013-06-06 14:32:00,54.0,51.0,29.94,NE,40,13.0,14.0,90,-99.99,,,-99.99,,2013-06-06 19:32:00,
2013-06-06 14:52:00,53.0,51.0,29.94,NNE,30,13.0,14.0,91,-99.99,,,-99.99,,2013-06-06 19:52:00,
2013-06-06 15:01:00,54.0,51.0,29.93,NNE,30,15.0,17.0,91,-99.99,,,-99.99,,2013-06-06 20:01:00,
2013-06-06 15:11:00,54.0,51.0,29.93,NNE,30,15.0,17.0,91,-99.99,,,-99.99,,2013-06-06 20:11:00,
2013-06-06 15:22:00,54.0,52.0,29.93,NNE,30,11.0,13.0,91,-99.99,,,-99.99,,2013-06-06 20:22:00,
2013-06-06 15:32:00,54.0,52.0,29.93,NNE,30,11.0,13.0,91,-99.99,,,-99.99,,2013-06-06 20:32:00,
2013-06-06 15:42:00,54.0,52.0,29.93,NNE,30,11.0,13.0,91,-99.99,,,-99.99,,2013-06-06 20:42:00,
2013-06-06 15:52:00,54.0,51.0,29.93,NNE,30,10.0,11.0,91,-99.99,,,-99.99,,2013-06-06 20:52:00,
2013-06-06 16:01:00,54.0,51.0,29.93,NNE,30,9.0,13.0,91,-99.99,,,-99.99,,2013-06-06 21:01:00,
2013-06-06 16:11:00,54.0,51.0,29.93,NNE,30,9.0,13.0,91,-99.99,,,-99.99,,2013-06-06 21:11:00,
2013-06-06 16:21:00,54.0,52.0,29.94,NNE,30,10.0,13.0,89,-99.99,,,-99.99,,2013-06-06 21:21:00,
2013-06-06 16:32:00,56.0,52.0,29.93,NNE,20,13.0,16.0,84,-99.99,,,-99.99,,2013-06-06 21:32:00,
2013-06-06 16:43:00,56.0,52.0,29.93,NNE,20,13.0,16.0,84,-99.99,,,-99.99,,2013-06-06 21:43:00,
2013-06-06 16:53:00,56.0,51.0,29.94,NNE,30,9.0,11.0,85,-99.99,,,-99.99,,2013-06-06 21:53:00,
2013-06-06 17:02:00,55.0,52.0,29.94,North,360,10.0,13.0,88,-99.99,,,-99.99,,2013-06-06 22:02:00,
2013-06-06 17:12:00,55.0,52.0,29.94,North,360,10.0,13.0,88,-99.99,,,-99.99,,2013-06-06 22:12:00,
2013-06-06 17:22:00,55.0,52.0,29.94,North,360,15.0,17.0,87,-99.99,,,-99.99,,2013-06-06 22:22:00,
2013-06-06 17:33:00,56.0,52.0,29.95,North,350,15.0,17.0,86,-99.99,,,-99.99,,2013-06-06 22:33:00,
2013-06-06 17:43:00,56.0,52.0,29.95,North,350,15.0,17.0,86,-99.99,,,-99.99,,2013-06-06 22:43:00,
2013-06-06 17:52:00,55.0,51.0,29.95,North,360,14.0,16.0,88,-99.99,,,-99.99,,2013-06-06 22:52:00,
2013-06-06 18:02:00,54.0,51.0,29.95,North,10,11.0,13.0,89,-99.99,,,-99.99,,2013-06-06 23:02:00,
2013-06-06 18:11:00,54.0,51.0,29.93,North,360,15.0,18.0,88,-99.99,,,-99.99,,2013-06-06 23:11:00,
2013-06-06 18:21:00,54.0,51.0,29.93,North,360,15.0,18.0,88,-99.99,,,-99.99,,2013-06-06 23:21:00,
2013-06-06 18:33:00,53.0,50.0,29.94,North,360,15.0,18.0,89,-99.99,,,-99.99,,2013-06-06 23:33:00,
2013-06-06 18:42:00,53.0,50.0,29.94,North,360,15.0,18.0,89,-99.99,,,-99.99,,2013-06-06 23:42:00,
2013-06-06 18:52:00,53.0,50.0,29.95,North,360,15.0,17.0,88,-99.99,,,-99.99,,2013-06-06 23:52:00,
2013-06-06 19:11:00,53.0,50.0,29.95,North,10,16.0,20.0,88,-99.99,,,-99.99,,2013-06-07 00:11:00,
2013-06-06 19:21:00,53.0,50.0,29.95,NNE,20,16.0,20.0,88,-99.99,,,-99.99,,2013-06-07 00:21:00,
2013-06-06 19:32:00,53.0,50.0,29.95,NNE,20,16.0,20.0,88,-99.99,,,-99.99,,2013-06-07 00:32:00,
2013-06-06 19:42:00,53.0,49.0,29.96,NNE,20,16.0,18.0,86,-99.99,,,-99.99,,2013-06-07 00:42:00,
2013-06-06 19:52:00,53.0,49.0,29.96,NNE,20,16.0,18.0,86,-99.99,,,-99.99,,2013-06-07 00:52:00,
2013-06-06 20:01:00,53.0,49.0,29.95,NNE,20,17.0,20.0,85,-99.99,,,-99.99,,2013-06-07 01:01:00,
2013-06-06 20:11:00,53.0,49.0,29.95,NNE,20,17.0,20.0,85,-99.99,,,-99.99,,2013-06-07 01:11:00,
2013-06-06 20:21:00,53.0,49.0,29.95,NNE,20,16.0,18.0,84,-99.99,,,-99.99,,2013-06-07 01:21:00,
2013-06-06 20:31:00,53.0,49.0,29.95,NNE,30,13.0,15.0,85,-99.99,,,-99.99,,2013-06-07 01:31:00,
2013-06-06 20:42:00,54.0,49.0,29.95,NNE,20,13.0,16.0,84,-99.99,,,-99.99,,2013-06-07 01:42:00,
2013-06-06 20:52:00,54.0,49.0,29.95,NNE,20,13.0,16.0,84,-99.99,,,-99.99,,2013-06-07 01:52:00,
2013-06-06 21:02:00,54.0,49.0,29.95,North,10,13.0,15.0,84,-99.99,,,-99.99,,2013-06-07 02:02:00,
2013-06-06 21:21:00,54.0,49.0,29.95,NNE,20,13.0,14.0,83,-99.99,,,-99.99,,2013-06-07 02:21:00,
2013-06-06 21:31:00,54.0,49.0,29.95,NNE,20,13.0,14.0,83,-99.99,,,-99.99,,2013-06-07 02:31:00,
2013-06-06 21:42:00,54.0,49.0,29.96,NNE,20,13.0,14.0,84,-99.99,,,-99.99,,2013-06-07 02:42:00,
2013-06-06 21:52:00,54.0,49.0,29.96,NNE,20,13.0,14.0,84,-99.99,,,-99.99,,2013-06-07 02:52:00,
2013-06-06 22:01:00,54.0,49.0,29.96,North,10,13.0,15.0,85,-99.99,,,-99.99,,2013-06-07 03:01:00,
2013-06-06 22:21:00,54.0,50.0,29.96,North,10,11.0,14.0,86,-99.99,,,-99.99,,2013-06-07 03:21:00,
2013-06-06 22:32:00,53.0,50.0,29.97,NE,40,7.0,10.0,89,-99.99,,,-99.99,,2013-06-07 03:32:00,
2013-06-06 22:43:00,53.0,50.0,29.97,NE,40,7.0,10.0,89,-99.99,,,-99.99,,2013-06-07 03:43:00,
2013-06-06 22:52:00,53.0,50.0,29.97,NNE,30,8.0,9.0,89,-99.99,,,-99.99,,2013-06-07 03:52:00,
2013-06-06 23:02:00,52.0,49.0,29.96,NE,40,7.0,8.0,91,-99.99,,,-99.99,,2013-06-07 04:02:00,
2013-06-06 23:12:00,52.0,49.0,29.96,NE,40,7.0,8.0,91,-99.99,,,-99.99,,2013-06-07 04:12:00,
2013-06-06 23:22:00,52.0,50.0,29.96,NE,40,6.0,7.0,91,-99.99,,,-99.99,,2013-06-07 04:22:00,
2013-06-06 23:33:00,52.0,50.0,29.96,NE,40,6.0,7.0,91,-99.99,,,-99.99,,2013-06-07 04:33:00,
2013-06-06 23:42:00,52.0,50.0,29.96,NE,40,6.0,7.0,91,-99.99,,,-99.99,,2013-06-07 04:42:00,
2013-06-06 23:53:00,52.0,50.0,29.96,NE,40,8.0,8.0,91,-99.99,,,-99.99,,2013-06-07 04:53:00,